sensor_id;sensor_type;location;lat;lon;timestamp;pressure;altitude;pressure_sealevel;temperature;humidity
59951;BME280;45812;53.540;9.774;2023-11-19T00:00:46;100861.53;;;6.32;100.00
59951;BME280;45812;53.540;9.774;2023-11-19T00:03:12;100857.34;;;6.29;100.00
59951;BME280;45812;53.540;9.774;2023-11-19T00:05:38;100840.66;;;6.29;100.00
59951;BME280;45812;53.540;9.774;2023-11-19T00:08:03;100827.56;;;6.27;100.00
59951;BME280;45812;53.540;9.774;2023-11-19T00:10:29;100828.41;;;6.28;100.00
59951;BME280;45812;53.540;9.774;2023-11-19T00:12:55;100825.78;;;6.28;100.00
59951;BME280;45812;53.540;9.774;2023-11-19T00:15:22;100817.56;;;6.31;100.00
59951;BME280;45812;53.540;9.774;2023-11-19T00:17:49;100813.84;;;6.33;100.00
59951;BME280;45812;53.540;9.774;2023-11-19T00:20:16;100807.31;;;6.37;100.00
59951;BME280;45812;53.540;9.774;2023-11-19T00:22:42;100805.09;;;6.43;100.00
59951;BME280;45812;53.540;9.774;2023-11-19T00:25:08;100792.00;;;6.41;100.00
59951;BME280;45812;53.540;9.774;2023-11-19T00:27:34;100787.00;;;6.48;100.00
59951;BME280;45812;53.540;9.774;2023-11-19T00:29:59;100774.59;;;6.48;100.00
59951;BME280;45812;53.540;9.774;2023-11-19T00:32:24;100768.09;;;6.52;100.00
59951;BME280;45812;53.540;9.774;2023-11-19T00:34:50;100761.38;;;6.48;100.00
59951;BME280;45812;53.540;9.774;2023-11-19T00:37:15;100746.50;;;6.47;100.00
59951;BME280;45812;53.540;9.774;2023-11-19T00:39:41;100747.47;;;6.46;100.00
59951;BME280;45812;53.540;9.774;2023-11-19T00:42:07;100741.91;;;6.40;100.00
59951;BME280;45812;53.540;9.774;2023-11-19T00:44:32;100728.97;;;6.36;100.00
59951;BME280;45812;53.540;9.774;2023-11-19T00:46:58;100721.56;;;6.30;100.00
59951;BME280;45812;53.540;9.774;2023-11-19T00:49:24;100724.91;;;6.23;100.00
59951;BME280;45812;53.540;9.774;2023-11-19T00:51:50;100730.06;;;6.24;100.00
59951;BME280;45812;53.540;9.774;2023-11-19T00:54:15;100713.06;;;6.27;100.00
59951;BME280;45812;53.540;9.774;2023-11-19T00:56:40;100712.25;;;6.26;100.00
59951;BME280;45812;53.540;9.774;2023-11-19T00:59:05;100703.75;;;6.23;100.00
59951;BME280;45812;53.540;9.774;2023-11-19T01:01:30;100686.22;;;6.22;100.00
59951;BME280;45812;53.540;9.774;2023-11-19T01:03:56;100696.94;;;6.20;100.00
59951;BME280;45812;53.540;9.774;2023-11-19T01:06:32;100695.13;;;6.21;100.00
59951;BME280;45812;53.540;9.774;2023-11-19T01:08:57;100681.50;;;6.25;100.00
59951;BME280;45812;53.540;9.774;2023-11-19T01:11:24;100670.63;;;6.28;100.00
59951;BME280;45812;53.540;9.774;2023-11-19T01:13:50;100666.88;;;6.31;100.00
59951;BME280;45812;53.540;9.774;2023-11-19T01:16:15;100651.59;;;6.34;100.00
59951;BME280;45812;53.540;9.774;2023-11-19T01:18:41;100646.88;;;6.38;100.00
59951;BME280;45812;53.540;9.774;2023-11-19T01:21:06;100647.56;;;6.40;100.00
59951;BME280;45812;53.540;9.774;2023-11-19T01:23:31;100653.41;;;6.44;100.00
59951;BME280;45812;53.540;9.774;2023-11-19T01:25:57;100643.38;;;6.47;100.00
59951;BME280;45812;53.540;9.774;2023-11-19T01:28:23;100627.50;;;6.47;100.00
59951;BME280;45812;53.540;9.774;2023-11-19T01:30:50;100623.88;;;6.48;100.00
59951;BME280;45812;53.540;9.774;2023-11-19T01:33:16;100623.19;;;6.46;100.00
59951;BME280;45812;53.540;9.774;2023-11-19T01:35:41;100612.91;;;6.43;100.00
59951;BME280;45812;53.540;9.774;2023-11-19T01:38:06;100608.59;;;6.42;100.00
59951;BME280;45812;53.540;9.774;2023-11-19T01:40:33;100604.28;;;6.41;100.00
59951;BME280;45812;53.540;9.774;2023-11-19T01:42:58;100602.88;;;6.47;100.00
59951;BME280;45812;53.540;9.774;2023-11-19T01:45:28;100592.59;;;6.53;100.00
59951;BME280;45812;53.540;9.774;2023-11-19T01:47:57;100587.69;;;6.58;100.00
59951;BME280;45812;53.540;9.774;2023-11-19T01:50:24;100585.75;;;6.60;100.00
59951;BME280;45812;53.540;9.774;2023-11-19T01:52:52;100585.59;;;6.62;100.00
59951;BME280;45812;53.540;9.774;2023-11-19T01:55:18;100580.16;;;6.63;100.00
59951;BME280;45812;53.540;9.774;2023-11-19T01:57:45;100563.19;;;6.66;100.00
59951;BME280;45812;53.540;9.774;2023-11-19T02:00:11;100563.03;;;6.67;100.00
59951;BME280;45812;53.540;9.774;2023-11-19T02:02:38;100568.06;;;6.71;100.00
59951;BME280;45812;53.540;9.774;2023-11-19T02:05:05;100554.53;;;6.74;100.00
59951;BME280;45812;53.540;9.774;2023-11-19T02:07:31;100555.38;;;6.74;100.00
59951;BME280;45812;53.540;9.774;2023-11-19T02:09:56;100540.03;;;6.78;100.00
59951;BME280;45812;53.540;9.774;2023-11-19T02:12:24;100553.13;;;6.79;100.00
59951;BME280;45812;53.540;9.774;2023-11-19T02:14:49;100531.66;;;6.82;100.00
59951;BME280;45812;53.540;9.774;2023-11-19T02:17:25;100530.53;;;6.85;100.00
59951;BME280;45812;53.540;9.774;2023-11-19T02:19:51;100521.47;;;6.87;100.00
59951;BME280;45812;53.540;9.774;2023-11-19T02:22:16;100512.00;;;6.85;100.00
59951;BME280;45812;53.540;9.774;2023-11-19T02:24:41;100506.72;;;6.85;100.00
59951;BME280;45812;53.540;9.774;2023-11-19T02:27:10;100514.94;;;6.91;100.00
59951;BME280;45812;53.540;9.774;2023-11-19T02:29:40;100489.31;;;6.92;100.00
59951;BME280;45812;53.540;9.774;2023-11-19T02:32:06;100484.69;;;6.94;100.00
59951;BME280;45812;53.540;9.774;2023-11-19T02:34:34;100495.97;;;6.96;100.00
59951;BME280;45812;53.540;9.774;2023-11-19T02:36:59;100495.13;;;6.95;100.00
59951;BME280;45812;53.540;9.774;2023-11-19T02:39:24;100477.75;;;6.93;100.00
59951;BME280;45812;53.540;9.774;2023-11-19T02:41:50;100465.50;;;6.92;100.00
59951;BME280;45812;53.540;9.774;2023-11-19T02:44:17;100458.91;;;6.96;100.00
59951;BME280;45812;53.540;9.774;2023-11-19T02:46:42;100442.06;;;6.97;100.00
59951;BME280;45812;53.540;9.774;2023-11-19T02:49:07;100441.91;;;6.98;100.00
59951;BME280;45812;53.540;9.774;2023-11-19T02:51:33;100439.25;;;6.98;100.00
59951;BME280;45812;53.540;9.774;2023-11-19T02:53:59;100432.16;;;6.99;100.00
59951;BME280;45812;53.540;9.774;2023-11-19T02:56:25;100440.09;;;6.99;100.00
59951;BME280;45812;53.540;9.774;2023-11-19T02:58:51;100425.28;;;7.06;100.00
59951;BME280;45812;53.540;9.774;2023-11-19T03:01:26;100430.38;;;7.17;100.00
59951;BME280;45812;53.540;9.774;2023-11-19T03:03:59;100417.50;;;7.22;100.00
59951;BME280;45812;53.540;9.774;2023-11-19T03:06:26;100421.38;;;7.28;100.00
59951;BME280;45812;53.540;9.774;2023-11-19T03:08:52;100425.44;;;7.22;100.00
59951;BME280;45812;53.540;9.774;2023-11-19T03:11:17;100393.16;;;7.19;100.00
59951;BME280;45812;53.540;9.774;2023-11-19T03:13:43;100392.03;;;7.21;100.00
59951;BME280;45812;53.540;9.774;2023-11-19T03:16:08;100398.16;;;7.22;100.00
59951;BME280;45812;53.540;9.774;2023-11-19T03:18:33;100385.75;;;7.22;100.00
59951;BME280;45812;53.540;9.774;2023-11-19T03:20:59;100381.13;;;7.24;100.00
59951;BME280;45812;53.540;9.774;2023-11-19T03:23:25;100371.81;;;7.20;100.00
59951;BME280;45812;53.540;9.774;2023-11-19T03:25:53;100364.34;;;7.16;100.00
59951;BME280;45812;53.540;9.774;2023-11-19T03:28:18;100370.78;;;7.13;100.00
59951;BME280;45812;53.540;9.774;2023-11-19T03:30:44;100366.47;;;7.12;100.00
59951;BME280;45812;53.540;9.774;2023-11-19T03:33:09;100368.81;;;7.15;100.00
59951;BME280;45812;53.540;9.774;2023-11-19T03:35:34;100354.44;;;7.18;100.00
59951;BME280;45812;53.540;9.774;2023-11-19T03:37:59;100355.25;;;7.18;100.00
59951;BME280;45812;53.540;9.774;2023-11-19T03:40:26;100352.31;;;7.21;100.00
59951;BME280;45812;53.540;9.774;2023-11-19T03:42:51;100354.81;;;7.23;100.00
59951;BME280;45812;53.540;9.774;2023-11-19T03:45:16;100341.66;;;7.31;100.00
59951;BME280;45812;53.540;9.774;2023-11-19T03:47:42;100341.50;;;7.33;100.00
59951;BME280;45812;53.540;9.774;2023-11-19T03:50:07;100337.91;;;7.42;100.00
59951;BME280;45812;53.540;9.774;2023-11-19T03:52:36;100344.88;;;7.43;100.00
59951;BME280;45812;53.540;9.774;2023-11-19T03:55:01;100345.88;;;7.42;100.00
59951;BME280;45812;53.540;9.774;2023-11-19T03:57:28;100337.25;;;7.40;100.00
59951;BME280;45812;53.540;9.774;2023-11-19T03:59:54;100341.78;;;7.47;100.00
59951;BME280;45812;53.540;9.774;2023-11-19T04:02:21;100324.75;;;7.50;100.00
59951;BME280;45812;53.540;9.774;2023-11-19T04:04:46;100326.09;;;7.54;100.00
59951;BME280;45812;53.540;9.774;2023-11-19T04:07:11;100328.75;;;7.54;100.00
59951;BME280;45812;53.540;9.774;2023-11-19T04:09:37;100323.28;;;7.55;100.00
59951;BME280;45812;53.540;9.774;2023-11-19T04:12:05;100308.91;;;7.58;100.00
59951;BME280;45812;53.540;9.774;2023-11-19T04:14:30;100318.91;;;7.64;100.00
59951;BME280;45812;53.540;9.774;2023-11-19T04:16:55;100300.88;;;7.68;100.00
59951;BME280;45812;53.540;9.774;2023-11-19T04:19:21;100304.03;;;7.71;100.00
59951;BME280;45812;53.540;9.774;2023-11-19T04:21:47;100299.31;;;7.83;100.00
59951;BME280;45812;53.540;9.774;2023-11-19T04:24:12;100296.19;;;7.87;100.00
59951;BME280;45812;53.540;9.774;2023-11-19T04:26:44;100292.91;;;7.94;100.00
59951;BME280;45812;53.540;9.774;2023-11-19T04:29:14;100295.91;;;7.99;100.00
59951;BME280;45812;53.540;9.774;2023-11-19T04:31:40;100291.81;;;8.04;100.00
59951;BME280;45812;53.540;9.774;2023-11-19T04:34:06;100293.66;;;8.12;100.00
59951;BME280;45812;53.540;9.774;2023-11-19T04:36:34;100295.03;;;8.24;100.00
59951;BME280;45812;53.540;9.774;2023-11-19T04:39:00;100287.25;;;8.23;100.00
59951;BME280;45812;53.540;9.774;2023-11-19T04:41:26;100289.56;;;8.26;100.00
59951;BME280;45812;53.540;9.774;2023-11-19T04:43:55;100285.81;;;8.36;100.00
59951;BME280;45812;53.540;9.774;2023-11-19T04:46:20;100288.00;;;8.49;100.00
59951;BME280;45812;53.540;9.774;2023-11-19T04:48:46;100302.44;;;8.55;100.00
59951;BME280;45812;53.540;9.774;2023-11-19T04:51:11;100287.38;;;8.63;100.00
59951;BME280;45812;53.540;9.774;2023-11-19T04:53:36;100293.34;;;8.73;100.00
59951;BME280;45812;53.540;9.774;2023-11-19T04:56:07;100284.75;;;8.79;100.00
59951;BME280;45812;53.540;9.774;2023-11-19T04:58:34;100277.78;;;8.87;100.00
59951;BME280;45812;53.540;9.774;2023-11-19T05:00:59;100285.25;;;8.91;100.00
59951;BME280;45812;53.540;9.774;2023-11-19T05:03:24;100281.78;;;8.99;100.00
59951;BME280;45812;53.540;9.774;2023-11-19T05:05:49;100274.81;;;9.06;100.00
59951;BME280;45812;53.540;9.774;2023-11-19T05:08:14;100269.69;;;9.13;100.00
59951;BME280;45812;53.540;9.774;2023-11-19T05:10:40;100270.34;;;9.15;100.00
59951;BME280;45812;53.540;9.774;2023-11-19T05:13:05;100262.06;;;9.18;100.00
59951;BME280;45812;53.540;9.774;2023-11-19T05:15:30;100260.72;;;9.22;100.00
59951;BME280;45812;53.540;9.774;2023-11-19T05:17:56;100254.41;;;9.23;100.00
59951;BME280;45812;53.540;9.774;2023-11-19T05:20:21;100247.75;;;9.27;100.00
59951;BME280;45812;53.540;9.774;2023-11-19T05:22:46;100246.94;;;9.26;100.00
59951;BME280;45812;53.540;9.774;2023-11-19T05:25:11;100246.75;;;9.28;100.00
59951;BME280;45812;53.540;9.774;2023-11-19T05:27:37;100246.75;;;9.36;100.00
59951;BME280;45812;53.540;9.774;2023-11-19T05:30:05;100240.78;;;9.42;100.00
59951;BME280;45812;53.540;9.774;2023-11-19T05:32:33;100247.75;;;9.51;100.00
59951;BME280;45812;53.540;9.774;2023-11-19T05:34:59;100242.56;;;9.58;100.00
59951;BME280;45812;53.540;9.774;2023-11-19T05:37:24;100242.88;;;9.63;100.00
59951;BME280;45812;53.540;9.774;2023-11-19T05:39:50;100230.75;;;9.68;100.00
59951;BME280;45812;53.540;9.774;2023-11-19T05:42:15;100245.19;;;9.74;100.00
59951;BME280;45812;53.540;9.774;2023-11-19T05:44:41;100238.00;;;9.83;100.00
59951;BME280;45812;53.540;9.774;2023-11-19T05:47:06;100245.31;;;9.89;100.00
59951;BME280;45812;53.540;9.774;2023-11-19T05:49:32;100248.91;;;9.96;100.00
59951;BME280;45812;53.540;9.774;2023-11-19T05:51:57;100245.38;;;10.03;100.00
59951;BME280;45812;53.540;9.774;2023-11-19T05:54:22;100243.06;;;10.09;100.00
59951;BME280;45812;53.540;9.774;2023-11-19T05:56:48;100240.34;;;10.17;100.00
59951;BME280;45812;53.540;9.774;2023-11-19T05:59:14;100247.84;;;10.21;100.00
59951;BME280;45812;53.540;9.774;2023-11-19T06:01:42;100240.34;;;10.25;100.00
59951;BME280;45812;53.540;9.774;2023-11-19T06:04:08;100238.19;;;10.28;100.00
59951;BME280;45812;53.540;9.774;2023-11-19T06:06:33;100224.03;;;10.28;100.00
59951;BME280;45812;53.540;9.774;2023-11-19T06:08:59;100239.94;;;10.36;100.00
59951;BME280;45812;53.540;9.774;2023-11-19T06:11:24;100244.09;;;10.39;100.00
59951;BME280;45812;53.540;9.774;2023-11-19T06:13:52;100247.91;;;10.44;100.00
59951;BME280;45812;53.540;9.774;2023-11-19T06:16:17;100248.19;;;10.49;100.00
59951;BME280;45812;53.540;9.774;2023-11-19T06:18:42;100253.69;;;10.48;100.00
59951;BME280;45812;53.540;9.774;2023-11-19T06:21:09;100244.88;;;10.47;100.00
59951;BME280;45812;53.540;9.774;2023-11-19T06:23:34;100241.22;;;10.48;100.00
59951;BME280;45812;53.540;9.774;2023-11-19T06:25:59;100230.50;;;10.56;100.00
59951;BME280;45812;53.540;9.774;2023-11-19T06:28:25;100237.81;;;10.63;100.00
59951;BME280;45812;53.540;9.774;2023-11-19T06:30:50;100235.63;;;10.66;100.00
59951;BME280;45812;53.540;9.774;2023-11-19T06:33:15;100243.88;;;10.71;100.00
59951;BME280;45812;53.540;9.774;2023-11-19T06:35:40;100237.19;;;10.75;100.00
59951;BME280;45812;53.540;9.774;2023-11-19T06:38:06;100236.56;;;10.73;100.00
59951;BME280;45812;53.540;9.774;2023-11-19T06:40:32;100237.75;;;10.71;100.00
59951;BME280;45812;53.540;9.774;2023-11-19T06:42:57;100250.41;;;10.69;100.00
59951;BME280;45812;53.540;9.774;2023-11-19T06:45:22;100248.91;;;10.66;100.00
59951;BME280;45812;53.540;9.774;2023-11-19T06:47:48;100255.44;;;10.64;100.00
59951;BME280;45812;53.540;9.774;2023-11-19T06:50:13;100258.44;;;10.60;100.00
59951;BME280;45812;53.540;9.774;2023-11-19T06:52:40;100254.09;;;10.59;100.00
59951;BME280;45812;53.540;9.774;2023-11-19T06:55:05;100251.34;;;10.53;100.00
59951;BME280;45812;53.540;9.774;2023-11-19T06:57:31;100250.69;;;10.51;100.00
59951;BME280;45812;53.540;9.774;2023-11-19T06:59:57;100273.97;;;10.49;100.00
59951;BME280;45812;53.540;9.774;2023-11-19T07:02:22;100266.81;;;10.49;100.00
59951;BME280;45812;53.540;9.774;2023-11-19T07:04:48;100265.63;;;10.52;100.00
59951;BME280;45812;53.540;9.774;2023-11-19T07:07:13;100266.94;;;10.56;100.00
59951;BME280;45812;53.540;9.774;2023-11-19T07:09:40;100269.78;;;10.54;100.00
59951;BME280;45812;53.540;9.774;2023-11-19T07:12:05;100270.44;;;10.56;100.00
59951;BME280;45812;53.540;9.774;2023-11-19T07:14:30;100274.28;;;10.54;100.00
59951;BME280;45812;53.540;9.774;2023-11-19T07:16:56;100268.41;;;10.58;100.00
59951;BME280;45812;53.540;9.774;2023-11-19T07:19:21;100268.94;;;10.54;100.00
59951;BME280;45812;53.540;9.774;2023-11-19T07:21:46;100268.94;;;10.54;100.00
59951;BME280;45812;53.540;9.774;2023-11-19T07:24:12;100270.13;;;10.51;100.00
59951;BME280;45812;53.540;9.774;2023-11-19T07:26:45;100274.09;;;10.55;100.00
59951;BME280;45812;53.540;9.774;2023-11-19T07:29:10;100275.56;;;10.58;100.00
59951;BME280;45812;53.540;9.774;2023-11-19T07:31:36;100275.25;;;10.61;100.00
59951;BME280;45812;53.540;9.774;2023-11-19T07:34:02;100280.03;;;10.66;100.00
59951;BME280;45812;53.540;9.774;2023-11-19T07:36:27;100278.84;;;10.68;100.00
59951;BME280;45812;53.540;9.774;2023-11-19T07:38:52;100280.31;;;10.71;100.00
59951;BME280;45812;53.540;9.774;2023-11-19T07:41:18;100275.28;;;10.76;100.00
59951;BME280;45812;53.540;9.774;2023-11-19T07:43:43;100270.47;;;10.79;100.00
59951;BME280;45812;53.540;9.774;2023-11-19T07:46:13;100276.94;;;10.77;100.00
59951;BME280;45812;53.540;9.774;2023-11-19T07:48:39;100275.00;;;10.71;100.00
59951;BME280;45812;53.540;9.774;2023-11-19T07:51:04;100282.81;;;10.72;100.00
59951;BME280;45812;53.540;9.774;2023-11-19T07:53:30;100272.34;;;10.71;100.00
59951;BME280;45812;53.540;9.774;2023-11-19T07:55:55;100279.50;;;10.70;100.00
59951;BME280;45812;53.540;9.774;2023-11-19T07:58:20;100300.78;;;10.70;100.00
59951;BME280;45812;53.540;9.774;2023-11-19T08:00:46;100291.16;;;10.69;100.00
59951;BME280;45812;53.540;9.774;2023-11-19T08:03:11;100289.69;;;10.67;100.00
59951;BME280;45812;53.540;9.774;2023-11-19T08:05:36;100302.81;;;10.68;100.00
59951;BME280;45812;53.540;9.774;2023-11-19T08:08:01;100292.50;;;10.65;100.00
59951;BME280;45812;53.540;9.774;2023-11-19T08:10:27;100302.81;;;10.68;100.00
59951;BME280;45812;53.540;9.774;2023-11-19T08:12:52;100299.84;;;10.63;100.00
59951;BME280;45812;53.540;9.774;2023-11-19T08:15:17;100306.66;;;10.66;100.00
59951;BME280;45812;53.540;9.774;2023-11-19T08:17:42;100299.84;;;10.63;100.00
59951;BME280;45812;53.540;9.774;2023-11-19T08:20:09;100306.00;;;10.64;100.00
59951;BME280;45812;53.540;9.774;2023-11-19T08:22:36;100311.63;;;10.69;100.00
59951;BME280;45812;53.540;9.774;2023-11-19T08:25:03;100305.75;;;10.73;100.00
59951;BME280;45812;53.540;9.774;2023-11-19T08:27:29;100309.06;;;10.75;100.00
59951;BME280;45812;53.540;9.774;2023-11-19T08:29:54;100302.56;;;10.78;100.00
59951;BME280;45812;53.540;9.774;2023-11-19T08:32:24;100305.22;;;10.78;100.00
59951;BME280;45812;53.540;9.774;2023-11-19T08:34:49;100313.72;;;10.81;100.00
59951;BME280;45812;53.540;9.774;2023-11-19T08:37:15;100314.19;;;10.85;100.00
59951;BME280;45812;53.540;9.774;2023-11-19T08:39:40;100332.28;;;10.89;100.00
59951;BME280;45812;53.540;9.774;2023-11-19T08:42:07;100322.75;;;10.95;100.00
59951;BME280;45812;53.540;9.774;2023-11-19T08:44:32;100331.06;;;11.00;100.00
59951;BME280;45812;53.540;9.774;2023-11-19T08:46:57;100332.91;;;11.00;100.00
59951;BME280;45812;53.540;9.774;2023-11-19T08:49:22;100330.88;;;11.02;100.00
59951;BME280;45812;53.540;9.774;2023-11-19T08:51:48;100334.56;;;11.01;100.00
59951;BME280;45812;53.540;9.774;2023-11-19T08:54:13;100330.09;;;10.93;100.00
59951;BME280;45812;53.540;9.774;2023-11-19T08:56:39;100336.06;;;10.95;100.00
59951;BME280;45812;53.540;9.774;2023-11-19T08:59:05;100331.75;;;10.94;100.00
59951;BME280;45812;53.540;9.774;2023-11-19T09:01:30;100331.94;;;10.92;100.00
59951;BME280;45812;53.540;9.774;2023-11-19T09:03:55;100344.78;;;10.89;100.00
59951;BME280;45812;53.540;9.774;2023-11-19T09:06:20;100350.47;;;10.86;100.00
59951;BME280;45812;53.540;9.774;2023-11-19T09:08:46;100343.00;;;10.81;100.00
59951;BME280;45812;53.540;9.774;2023-11-19T09:11:11;100355.81;;;10.78;100.00
59951;BME280;45812;53.540;9.774;2023-11-19T09:13:37;100356.63;;;10.78;100.00
59951;BME280;45812;53.540;9.774;2023-11-19T09:16:02;100351.81;;;10.82;100.00
59951;BME280;45812;53.540;9.774;2023-11-19T09:18:31;100363.13;;;10.84;100.00
59951;BME280;45812;53.540;9.774;2023-11-19T09:20:57;100356.31;;;10.81;100.00
59951;BME280;45812;53.540;9.774;2023-11-19T09:23:22;100351.94;;;10.88;100.00
59951;BME280;45812;53.540;9.774;2023-11-19T09:25:49;100367.09;;;10.88;100.00
59951;BME280;45812;53.540;9.774;2023-11-19T09:28:14;100372.94;;;10.83;100.00
59951;BME280;45812;53.540;9.774;2023-11-19T09:30:40;100358.16;;;10.81;100.00
59951;BME280;45812;53.540;9.774;2023-11-19T09:33:05;100365.78;;;10.84;100.00
59951;BME280;45812;53.540;9.774;2023-11-19T09:35:31;100372.59;;;10.86;100.00
59951;BME280;45812;53.540;9.774;2023-11-19T09:37:56;100366.44;;;10.86;100.00
59951;BME280;45812;53.540;9.774;2023-11-19T09:40:21;100372.75;;;10.85;100.00
59951;BME280;45812;53.540;9.774;2023-11-19T09:42:47;100365.72;;;10.92;100.00
59951;BME280;45812;53.540;9.774;2023-11-19T09:45:14;100364.72;;;10.93;100.00
59951;BME280;45812;53.540;9.774;2023-11-19T09:47:43;100369.22;;;10.92;100.00
59951;BME280;45812;53.540;9.774;2023-11-19T09:50:10;100376.06;;;10.87;100.00
59951;BME280;45812;53.540;9.774;2023-11-19T09:52:37;100375.59;;;10.83;100.00
59951;BME280;45812;53.540;9.774;2023-11-19T09:55:03;100372.94;;;10.83;100.00
59951;BME280;45812;53.540;9.774;2023-11-19T09:57:32;100362.75;;;10.87;100.00
59951;BME280;45812;53.540;9.774;2023-11-19T09:59:59;100369.94;;;10.86;100.00
59951;BME280;45812;53.540;9.774;2023-11-19T10:02:25;100361.41;;;10.91;100.00
59951;BME280;45812;53.540;9.774;2023-11-19T10:04:52;100366.56;;;10.92;100.00
59951;BME280;45812;53.540;9.774;2023-11-19T10:07:19;100358.22;;;10.96;100.00
59951;BME280;45812;53.540;9.774;2023-11-19T10:09:44;100364.53;;;10.95;100.00
59951;BME280;45812;53.540;9.774;2023-11-19T10:12:11;100367.38;;;10.93;100.00
59951;BME280;45812;53.540;9.774;2023-11-19T10:14:37;100367.56;;;10.91;100.00
59951;BME280;45812;53.540;9.774;2023-11-19T10:17:07;100362.22;;;10.91;100.00
59951;BME280;45812;53.540;9.774;2023-11-19T10:19:32;100363.94;;;10.84;100.00
59951;BME280;45812;53.540;9.774;2023-11-19T10:22:03;100379.63;;;10.79;100.00
59951;BME280;45812;53.540;9.774;2023-11-19T10:24:32;100370.81;;;10.79;100.00
59951;BME280;45812;53.540;9.774;2023-11-19T10:27:03;100368.63;;;10.82;100.00
59951;BME280;45812;53.540;9.774;2023-11-19T10:29:36;100374.06;;;10.89;100.00
59951;BME280;45812;53.540;9.774;2023-11-19T10:32:01;100372.53;;;10.95;100.00
59951;BME280;45812;53.540;9.774;2023-11-19T10:34:27;100367.84;;;10.97;100.00
59951;BME280;45812;53.540;9.774;2023-11-19T10:36:52;100365.69;;;11.00;100.00
59951;BME280;45812;53.540;9.774;2023-11-19T10:39:18;100371.97;;;11.07;100.00
59951;BME280;45812;53.540;9.774;2023-11-19T10:41:44;100369.13;;;11.09;100.00
59951;BME280;45812;53.540;9.774;2023-11-19T10:44:09;100372.06;;;11.14;100.00
59951;BME280;45812;53.540;9.774;2023-11-19T10:46:39;100370.78;;;11.10;100.00
59951;BME280;45812;53.540;9.774;2023-11-19T10:49:06;100378.59;;;11.11;100.00
59951;BME280;45812;53.540;9.774;2023-11-19T10:51:32;100370.13;;;11.08;100.00
59951;BME280;45812;53.540;9.774;2023-11-19T10:54:02;100384.56;;;11.13;100.00
59951;BME280;45812;53.540;9.774;2023-11-19T10:56:29;100369.91;;;11.17;100.00
59951;BME280;45812;53.540;9.774;2023-11-19T10:58:56;100373.88;;;11.21;100.00
59951;BME280;45812;53.540;9.774;2023-11-19T11:01:26;100370.03;;;11.24;100.00
59951;BME280;45812;53.540;9.774;2023-11-19T11:03:52;100371.31;;;11.28;100.00
59951;BME280;45812;53.540;9.774;2023-11-19T11:06:19;100381.69;;;11.23;100.00
59951;BME280;45812;53.540;9.774;2023-11-19T11:08:47;100380.56;;;11.17;100.00
59951;BME280;45812;53.540;9.774;2023-11-19T11:11:15;100382.06;;;11.12;100.00
59951;BME280;45812;53.540;9.774;2023-11-19T11:13:42;100371.75;;;11.17;100.00
59951;BME280;45812;53.540;9.774;2023-11-19T11:16:09;100367.59;;;11.37;100.00
59951;BME280;45812;53.540;9.774;2023-11-19T11:18:35;100366.88;;;11.43;100.00
59951;BME280;45812;53.540;9.774;2023-11-19T11:21:13;100371.47;;;11.49;100.00
59951;BME280;45812;53.540;9.774;2023-11-19T11:29:17;100375.09;;;11.57;100.00
59951;BME280;45812;53.540;9.774;2023-11-19T11:34:51;100371.94;;;11.76;100.00
59951;BME280;45812;53.540;9.774;2023-11-19T11:37:23;100372.97;;;11.90;100.00
59951;BME280;45812;53.540;9.774;2023-11-19T11:39:51;100373.84;;;12.05;100.00
59951;BME280;45812;53.540;9.774;2023-11-19T11:45:04;100382.25;;;12.31;100.00
59951;BME280;45812;53.540;9.774;2023-11-19T11:50:09;100374.50;;;12.51;100.00
59951;BME280;45812;53.540;9.774;2023-11-19T11:57:52;100367.22;;;12.16;100.00
59951;BME280;45812;53.540;9.774;2023-11-19T12:00:30;100364.88;;;11.83;100.00
59951;BME280;45812;53.540;9.774;2023-11-19T12:02:56;100386.41;;;11.59;100.00
59951;BME280;45812;53.540;9.774;2023-11-19T12:05:22;100386.06;;;11.39;100.00
59951;BME280;45812;53.540;9.774;2023-11-19T12:08:01;100379.31;;;11.28;100.00
59951;BME280;45812;53.540;9.774;2023-11-19T12:10:30;100375.25;;;11.17;100.00
59951;BME280;45812;53.540;9.774;2023-11-19T12:12:58;100382.72;;;11.14;100.00
59951;BME280;45812;53.540;9.774;2023-11-19T12:15:24;100376.41;;;11.15;100.00
59951;BME280;45812;53.540;9.774;2023-11-19T12:17:53;100375.25;;;11.17;100.00
59951;BME280;45812;53.540;9.774;2023-11-19T12:20:23;100377.72;;;11.19;100.00
59951;BME280;45812;53.540;9.774;2023-11-19T12:22:48;100385.19;;;11.23;100.00
59951;BME280;45812;53.540;9.774;2023-11-19T12:25:15;100384.28;;;11.31;100.00
59951;BME280;45812;53.540;9.774;2023-11-19T12:27:49;100378.06;;;11.39;100.00
59951;BME280;45812;53.540;9.774;2023-11-19T12:30:21;100380.06;;;11.60;100.00
59951;BME280;45812;53.540;9.774;2023-11-19T12:32:47;100371.22;;;11.82;100.00
59951;BME280;45812;53.540;9.774;2023-11-19T12:35:13;100366.78;;;12.12;100.00
59951;BME280;45812;53.540;9.774;2023-11-19T12:37:51;100371.72;;;12.44;100.00
59951;BME280;45812;53.540;9.774;2023-11-19T12:40:21;100373.41;;;12.82;100.00
59951;BME280;45812;53.540;9.774;2023-11-19T12:42:54;100366.16;;;12.76;100.00
59951;BME280;45812;53.540;9.774;2023-11-19T12:45:20;100373.19;;;12.62;100.00
59951;BME280;45812;53.540;9.774;2023-11-19T12:47:47;100368.41;;;12.57;100.00
59951;BME280;45812;53.540;9.774;2023-11-19T12:50:13;100374.56;;;12.72;100.00
59951;BME280;45812;53.540;9.774;2023-11-19T12:52:40;100363.13;;;13.00;100.00
59951;BME280;45812;53.540;9.774;2023-11-19T12:55:23;100371.66;;;12.89;100.00
59951;BME280;45812;53.540;9.774;2023-11-19T12:57:49;100353.19;;;12.72;100.00
59951;BME280;45812;53.540;9.774;2023-11-19T13:00:32;100354.72;;;13.18;100.00